createdAt,value
2022-08-12T00:00:05.625Z,14.15
2022-08-12T00:02:51.043Z,14.01
2022-08-12T00:06:01.938Z,13.90
2022-08-12T00:08:47.233Z,13.82
2022-08-12T00:11:33.618Z,13.81
2022-08-12T00:14:19.056Z,13.80
2022-08-12T00:17:04.583Z,13.76
2022-08-12T00:19:49.452Z,13.75
2022-08-12T00:22:35.459Z,13.76
2022-08-12T00:26:00.386Z,13.77
2022-08-12T00:28:27.694Z,13.78
2022-08-12T00:31:12.799Z,13.73
2022-08-12T00:33:57.751Z,13.64
2022-08-12T00:36:47.898Z,13.59
2022-08-12T00:39:35.442Z,13.54
2022-08-12T00:42:11.598Z,13.49
2022-08-12T00:44:48.301Z,13.48
2022-08-12T00:47:24.750Z,13.48
2022-08-12T00:49:52.766Z,13.47
2022-08-12T00:52:20.377Z,13.46
2022-08-12T00:54:50.970Z,13.38
2022-08-12T00:57:31.126Z,13.34
2022-08-12T01:00:00.672Z,13.33
2022-08-12T01:02:33.085Z,13.31
2022-08-12T01:05:24.116Z,13.32
2022-08-12T01:08:10.361Z,13.24
2022-08-12T01:10:58.132Z,13.20
2022-08-12T01:13:25.837Z,13.17
2022-08-12T01:16:03.867Z,13.17
2022-08-12T01:18:35.913Z,13.18
2022-08-12T01:21:27.271Z,13.17
2022-08-12T01:24:30.379Z,13.13
2022-08-12T01:26:59.557Z,13.02
2022-08-12T01:29:33.138Z,12.98
2022-08-12T01:32:05.203Z,12.98
2022-08-12T01:34:37.575Z,12.95
2022-08-12T01:37:07.633Z,12.93
2022-08-12T01:40:31.623Z,12.89
2022-08-12T01:42:41.859Z,12.87
2022-08-12T01:45:10.059Z,12.87
2022-08-12T01:47:56.282Z,12.84
2022-08-12T01:50:26.592Z,12.77
2022-08-12T01:53:05.498Z,12.73
2022-08-12T01:55:34.652Z,12.67
2022-08-12T01:58:11.601Z,12.63
2022-08-12T02:00:55.634Z,12.62
2022-08-12T02:04:08.138Z,12.56
2022-08-12T02:07:11.667Z,12.53
2022-08-12T02:10:50.591Z,12.50
2022-08-12T02:13:41.881Z,12.47
2022-08-12T02:16:19.980Z,12.46
2022-08-12T02:19:27.428Z,12.45
2022-08-12T02:22:21.608Z,12.38
2022-08-12T02:24:50.926Z,12.32
2022-08-12T02:27:19.597Z,12.31
2022-08-12T02:29:46.229Z,12.27
2022-08-12T02:32:14.479Z,12.24
2022-08-12T02:34:43.955Z,12.24
2022-08-12T02:37:15.412Z,12.21
2022-08-12T02:39:48.507Z,12.19
2022-08-12T02:42:17.454Z,12.14
2022-08-12T02:44:49.095Z,11.97
2022-08-12T02:47:58.261Z,11.90
2022-08-12T02:50:05.654Z,11.82
2022-08-12T02:52:34.752Z,11.77
2022-08-12T02:55:34.052Z,11.76
2022-08-12T02:58:06.972Z,11.74
2022-08-12T03:00:38.214Z,11.77
2022-08-12T03:03:08.131Z,11.79
2022-08-12T03:05:44.186Z,11.79
2022-08-12T03:08:29.885Z,11.61
2022-08-12T03:11:15.215Z,11.58
2022-08-12T03:13:47.142Z,11.38
2022-08-12T03:16:14.849Z,11.32
2022-08-12T03:18:45.979Z,11.24
2022-08-12T03:21:16.700Z,11.14
2022-08-12T03:23:45.491Z,11.15
2022-08-12T03:26:12.511Z,11.12
2022-08-12T03:28:51.065Z,11.02
2022-08-12T03:31:29.785Z,10.87
2022-08-12T03:34:09.790Z,10.80
2022-08-12T03:36:38.173Z,10.76
2022-08-12T03:39:16.916Z,10.73
2022-08-12T03:42:01.720Z,10.73
2022-08-12T03:44:53.375Z,10.75
2022-08-12T03:47:43.704Z,10.76
2022-08-12T03:50:29.613Z,10.76
2022-08-12T03:53:14.798Z,10.80
2022-08-12T03:55:59.970Z,10.87
2022-08-12T03:58:45.276Z,10.93
2022-08-12T04:01:13.125Z,11.02
2022-08-12T04:03:55.088Z,11.07
2022-08-12T04:06:35.287Z,11.15
2022-08-12T04:09:05.280Z,11.18
2022-08-12T04:12:04.023Z,11.23
2022-08-12T04:14:32.956Z,11.30
2022-08-12T04:17:00.355Z,11.33
2022-08-12T04:19:27.378Z,11.33
2022-08-12T04:22:02.018Z,11.38
2022-08-12T04:24:34.886Z,11.41
2022-08-12T04:27:03.513Z,11.46
2022-08-12T04:30:31.655Z,11.51
2022-08-12T04:32:16.634Z,11.56
2022-08-12T04:34:44.494Z,11.65
2022-08-12T04:37:12.669Z,11.76
2022-08-12T04:39:40.126Z,11.84
2022-08-12T04:42:06.825Z,11.87
2022-08-12T04:44:33.490Z,11.90
2022-08-12T04:47:00.228Z,11.91
2022-08-12T04:49:28.016Z,11.94
2022-08-12T04:51:59.126Z,12.02
2022-08-12T04:54:27.736Z,12.07
2022-08-12T04:57:04.617Z,12.11
2022-08-12T04:59:46.690Z,12.20
2022-08-12T05:02:20.898Z,12.25
2022-08-12T05:04:56.283Z,12.33
2022-08-12T05:07:27.842Z,12.38
2022-08-12T05:09:59.334Z,12.45
2022-08-12T05:12:34.164Z,12.53
2022-08-12T05:15:00.862Z,12.61
2022-08-12T05:17:28.253Z,12.70
2022-08-12T05:19:57.078Z,12.81
2022-08-12T05:22:24.884Z,12.94
2022-08-12T05:24:51.278Z,13.14
2022-08-12T05:27:18.152Z,13.79
2022-08-12T05:30:08.273Z,15.00
2022-08-12T05:32:36.753Z,16.76
2022-08-12T05:35:06.638Z,18.20
2022-08-12T05:37:34.997Z,19.48
2022-08-12T05:40:08.289Z,20.58
2022-08-12T05:42:37.600Z,21.50
2022-08-12T05:45:04.504Z,22.00
2022-08-12T05:47:44.876Z,22.48
2022-08-12T05:50:19.752Z,22.86
2022-08-12T05:52:46.315Z,23.35
2022-08-12T05:55:14.900Z,23.94
2022-08-12T05:57:41.390Z,24.34
2022-08-12T06:00:08.384Z,24.43
2022-08-12T06:02:35.582Z,24.66
2022-08-12T06:05:02.706Z,25.07
2022-08-12T06:07:59.298Z,25.73
2022-08-12T06:10:17.739Z,26.09
2022-08-12T06:12:59.484Z,26.09
2022-08-12T06:15:25.976Z,26.22
2022-08-12T06:17:52.615Z,26.46
2022-08-12T06:20:29.542Z,26.55
2022-08-12T06:22:57.082Z,26.63
2022-08-12T06:25:27.814Z,26.52
2022-08-12T06:28:08.060Z,26.22
2022-08-12T06:30:39.070Z,25.93
2022-08-12T06:33:22.465Z,26.04
2022-08-12T06:35:50.235Z,26.19
2022-08-12T06:38:20.359Z,26.50
2022-08-12T06:41:07.263Z,26.89
2022-08-12T06:44:04.521Z,27.20
2022-08-12T06:46:22.194Z,27.17
2022-08-12T06:48:57.296Z,27.09
2022-08-12T06:51:34.796Z,27.14
2022-08-12T06:54:02.259Z,26.96
2022-08-12T06:56:46.326Z,26.87
2022-08-12T06:59:15.993Z,27.15
2022-08-12T07:01:49.861Z,27.24
2022-08-12T07:07:10.309Z,26.20
2022-08-12T07:10:05.527Z,25.55
2022-08-12T07:12:28.227Z,24.56
2022-08-12T07:14:58.919Z,23.77
2022-08-12T07:17:26.469Z,23.31
2022-08-12T07:19:53.812Z,22.83
2022-08-12T07:22:23.360Z,22.55
2022-08-12T07:25:09.974Z,22.23
2022-08-12T07:27:43.535Z,22.09
2022-08-12T07:30:11.296Z,21.95
2022-08-12T07:32:37.960Z,21.95
2022-08-12T07:35:04.707Z,21.95
2022-08-12T07:37:33.063Z,21.91
2022-08-12T07:40:01.115Z,21.89
2022-08-12T07:42:29.731Z,21.92
2022-08-12T07:44:56.969Z,22.02
2022-08-12T07:47:25.208Z,22.13
2022-08-12T07:50:05.524Z,22.30
2022-08-12T07:52:38.460Z,22.50
2022-08-12T07:55:06.270Z,22.69
2022-08-12T07:57:35.735Z,23.17
2022-08-12T08:00:05.943Z,23.67
2022-08-12T08:02:36.403Z,24.04
2022-08-12T08:05:04.423Z,24.31
2022-08-12T08:07:31.566Z,24.44
2022-08-12T08:10:00.422Z,24.79
2022-08-12T08:12:47.674Z,24.85
2022-08-12T08:15:15.638Z,24.86
2022-08-12T08:17:57.952Z,24.88
2022-08-12T08:20:28.845Z,25.11
2022-08-12T08:22:57.659Z,25.12
2022-08-12T08:25:36.335Z,25.07
2022-08-12T08:28:07.089Z,25.20
2022-08-12T08:30:35.488Z,25.41
2022-08-12T08:33:02.041Z,25.60
2022-08-12T08:35:46.254Z,25.64
2022-08-12T08:38:28.715Z,25.74
2022-08-12T08:42:17.638Z,25.87
2022-08-12T08:44:04.739Z,25.87
2022-08-12T08:46:34.799Z,26.00
2022-08-12T08:49:01.572Z,25.93
2022-08-12T08:51:28.039Z,25.98
2022-08-12T08:53:54.515Z,25.93
2022-08-12T08:56:22.156Z,26.03
2022-08-12T08:58:49.698Z,26.19
2022-08-12T09:01:20.863Z,26.16
2022-08-12T09:05:08.068Z,26.27
2022-08-12T09:07:18.063Z,26.34
2022-08-12T09:20:17.887Z,26.63
2022-08-12T09:23:58.324Z,26.66
2022-08-12T09:26:29.201Z,26.76
2022-08-12T09:40:57.481Z,27.08
2022-08-12T09:51:00.048Z,27.45
2022-08-12T09:53:29.420Z,27.47
2022-08-12T09:56:56.590Z,27.60
2022-08-12T09:58:59.963Z,27.63
2022-08-12T10:01:35.604Z,27.65
2022-08-12T10:04:19.274Z,27.63
2022-08-12T10:06:57.624Z,27.59
2022-08-12T10:09:28.441Z,27.82
2022-08-12T10:12:37.264Z,28.01
2022-08-12T10:15:04.490Z,28.02
2022-08-12T10:17:34.250Z,28.06
2022-08-12T10:20:20.695Z,27.94
2022-08-12T10:22:58.047Z,27.77
2022-08-12T10:26:34.852Z,27.70
2022-08-12T10:29:01.619Z,27.76
2022-08-12T10:31:59.482Z,27.92
2022-08-12T10:34:26.238Z,27.93
2022-08-12T10:36:58.821Z,28.24
2022-08-12T10:40:07.154Z,27.73
2022-08-12T10:42:46.313Z,27.35
2022-08-12T10:45:14.355Z,26.95
2022-08-12T10:48:01.598Z,26.66
2022-08-12T10:51:02.414Z,26.30
2022-08-12T10:53:44.151Z,26.16
2022-08-12T10:56:14.164Z,26.12
2022-08-12T11:21:57.677Z,26.60
2022-08-12T11:25:10.486Z,26.30
2022-08-12T11:40:46.823Z,26.15
2022-08-12T11:43:18.560Z,26.06
2022-08-12T11:45:47.636Z,25.98
2022-08-12T11:48:19.723Z,25.94
2022-08-12T11:55:50.337Z,25.81
2022-08-12T11:59:08.426Z,26.05
2022-08-12T12:12:15.414Z,27.59
2022-08-12T12:14:42.235Z,27.83
2022-08-12T12:17:09.476Z,28.02
2022-08-12T12:23:29.313Z,28.63
2022-08-12T12:26:38.582Z,28.63
2022-08-12T12:29:11.145Z,28.71
2022-08-12T12:32:10.008Z,28.88
2022-08-12T12:34:38.155Z,28.96
2022-08-12T12:37:05.932Z,28.87
2022-08-12T12:39:55.306Z,29.05
2022-08-12T12:42:55.608Z,29.07
2022-08-12T12:45:19.459Z,29.05
2022-08-12T12:47:57.270Z,29.06
2022-08-12T12:50:35.241Z,29.04
2022-08-12T12:53:04.146Z,29.06
2022-08-12T12:55:35.982Z,29.20
2022-08-12T12:58:04.947Z,29.37
2022-08-12T13:00:34.364Z,29.38
2022-08-12T13:03:01.229Z,29.34
2022-08-12T13:05:42.094Z,29.32
2022-08-12T13:08:28.072Z,29.23
2022-08-12T13:11:04.390Z,29.26
2022-08-12T13:14:08.676Z,29.27
2022-08-12T13:16:25.088Z,29.32
2022-08-12T13:18:54.130Z,29.48
2022-08-12T13:21:33.547Z,29.39
2022-08-12T13:24:10.568Z,29.35
2022-08-12T13:26:37.961Z,29.38
2022-08-12T13:29:04.756Z,29.28
2022-08-12T13:31:35.620Z,29.29
2022-08-12T13:34:32.985Z,29.37
2022-08-12T13:37:00.836Z,29.52
2022-08-12T13:39:29.786Z,29.61
2022-08-12T13:41:56.653Z,29.68
2022-08-12T13:44:26.445Z,29.57
2022-08-12T13:46:58.755Z,29.22
2022-08-12T13:49:55.170Z,28.91
2022-08-12T13:52:14.004Z,28.59
2022-08-12T13:54:40.867Z,28.59
2022-08-12T13:57:11.207Z,28.43
2022-08-12T13:59:48.252Z,28.48
2022-08-12T14:02:22.515Z,28.48
2022-08-12T14:04:56.361Z,28.58
2022-08-12T14:07:25.954Z,28.64
2022-08-12T14:10:16.043Z,28.68
2022-08-12T14:12:54.681Z,28.88
2022-08-12T14:15:36.507Z,28.92
2022-08-12T14:18:13.632Z,28.93
2022-08-12T14:20:43.865Z,29.01
2022-08-12T14:24:08.269Z,29.06
2022-08-12T14:26:05.718Z,29.11
2022-08-12T14:28:45.396Z,29.09
2022-08-12T14:31:31.304Z,28.92
2022-08-12T14:33:59.585Z,28.80
2022-08-12T14:36:26.961Z,28.83
2022-08-12T14:38:56.210Z,29.00
2022-08-12T14:41:37.144Z,28.98
2022-08-12T14:45:00.103Z,28.94
2022-08-12T14:47:01.290Z,29.03
2022-08-12T14:50:37.106Z,28.96
2022-08-12T14:53:45.878Z,28.76
2022-08-12T14:57:58.338Z,28.78
2022-08-12T15:00:52.311Z,28.79
2022-08-12T15:03:21.926Z,28.93
2022-08-12T15:06:06.225Z,28.99
2022-08-12T15:08:41.642Z,28.97
2022-08-12T15:11:14.231Z,28.83
2022-08-12T15:13:45.514Z,28.87
2022-08-12T15:16:13.197Z,28.88
2022-08-12T15:18:55.470Z,28.82
2022-08-12T15:22:37.556Z,28.78
2022-08-12T15:24:22.113Z,28.76
2022-08-12T15:26:51.259Z,28.87
2022-08-12T15:29:19.531Z,28.77
2022-08-12T15:32:00.171Z,28.74
2022-08-12T15:34:30.868Z,28.76
2022-08-12T15:36:57.824Z,28.80
2022-08-12T15:43:35.419Z,28.79
2022-08-12T15:46:06.663Z,28.82
2022-08-12T15:48:46.860Z,28.86
2022-08-12T15:51:58.889Z,28.75
2022-08-12T16:17:18.699Z,28.23
2022-08-12T16:20:03.198Z,28.23
2022-08-12T16:26:15.152Z,28.18
2022-08-12T16:29:23.758Z,28.17
2022-08-12T16:32:58.389Z,28.22
2022-08-12T16:35:25.517Z,28.14
2022-08-12T16:38:25.240Z,28.20
2022-08-12T16:40:50.473Z,28.02
2022-08-12T16:43:28.973Z,27.83
2022-08-12T16:46:58.570Z,27.84
2022-08-12T16:49:26.375Z,27.60
2022-08-12T16:56:29.057Z,27.67
2022-08-12T16:59:00.680Z,27.59
2022-08-12T17:01:33.371Z,27.54
2022-08-12T17:04:08.685Z,27.44
2022-08-12T17:06:47.037Z,27.34
2022-08-12T17:09:19.012Z,27.22
2022-08-12T17:11:56.915Z,27.24
2022-08-12T17:14:24.877Z,27.22
2022-08-12T17:17:26.268Z,27.15
2022-08-12T17:20:35.293Z,27.17
2022-08-12T17:22:53.331Z,27.05
2022-08-12T17:25:23.382Z,26.85
2022-08-12T17:27:57.762Z,26.73
2022-08-12T17:30:27.761Z,26.67
2022-08-12T17:32:56.977Z,26.57
2022-08-12T17:38:38.324Z,26.49
2022-08-12T17:41:08.093Z,26.46
2022-08-12T17:43:58.289Z,26.25
2022-08-12T17:46:40.551Z,26.18
2022-08-12T17:49:19.213Z,26.12
2022-08-12T17:51:50.421Z,25.98
2022-08-12T17:54:39.924Z,25.92
2022-08-12T17:57:16.491Z,25.83
2022-08-12T18:00:14.188Z,25.61
2022-08-12T18:02:51.906Z,25.41
2022-08-12T18:05:19.094Z,25.26
2022-08-12T18:07:49.762Z,25.12
2022-08-12T18:10:44.139Z,25.00
2022-08-12T18:13:40.758Z,24.87
2022-08-12T18:16:23.231Z,24.77
2022-08-12T18:18:51.373Z,24.64
2022-08-12T18:21:25.984Z,24.48
2022-08-12T18:24:19.774Z,24.32
2022-08-12T18:26:56.634Z,24.20
2022-08-12T18:29:27.128Z,24.04
2022-08-12T18:32:53.932Z,23.88
2022-08-12T18:35:10.625Z,23.74
2022-08-12T18:38:02.340Z,23.60
2022-08-12T18:40:49.267Z,23.48
2022-08-12T18:43:19.759Z,23.37
2022-08-12T18:45:56.836Z,23.27
2022-08-12T18:48:24.828Z,23.16
2022-08-12T18:51:09.586Z,23.04
2022-08-12T18:54:05.538Z,22.94
2022-08-12T18:56:50.227Z,22.82
2022-08-12T18:59:59.841Z,22.74
2022-08-12T19:02:19.687Z,22.62
2022-08-12T19:04:53.154Z,22.51
2022-08-12T19:07:24.755Z,22.43
2022-08-12T19:09:58.781Z,22.33
2022-08-12T19:12:57.442Z,22.23
2022-08-12T19:15:26.538Z,22.10
2022-08-12T19:18:01.254Z,22.02
2022-08-12T19:20:36.497Z,21.93
2022-08-12T19:23:08.267Z,21.83
2022-08-12T19:26:01.354Z,21.74
2022-08-12T19:28:38.445Z,21.62
2022-08-12T19:31:58.112Z,21.52
2022-08-12T19:38:04.236Z,21.29
2022-08-12T19:40:20.014Z,21.17
2022-08-12T19:42:57.394Z,21.03
2022-08-12T19:45:41.911Z,20.91
2022-08-12T19:48:20.266Z,20.76
2022-08-12T19:50:52.759Z,20.61
2022-08-12T19:53:24.273Z,20.45
2022-08-12T19:55:53.441Z,20.36
2022-08-12T19:58:21.678Z,20.27
2022-08-12T20:00:56.289Z,20.20
2022-08-12T20:03:38.819Z,20.09
2022-08-12T20:06:13.480Z,20.02
2022-08-12T20:08:45.487Z,19.96
2022-08-12T20:12:14.234Z,19.89
2022-08-12T20:14:06.215Z,19.82
2022-08-12T20:19:52.911Z,19.71
2022-08-12T20:22:31.606Z,19.64
2022-08-12T20:25:09.442Z,19.57
2022-08-12T20:28:05.038Z,19.51
2022-08-12T20:30:37.759Z,19.50
2022-08-12T20:33:23.365Z,19.40
2022-08-12T20:36:14.153Z,19.23
2022-08-12T20:38:47.628Z,19.00
2022-08-12T20:41:17.626Z,18.73
2022-08-12T20:43:49.394Z,18.53
2022-08-12T20:46:19.180Z,18.40
2022-08-12T20:48:55.259Z,18.36
2022-08-12T20:51:27.362Z,18.32
2022-08-12T20:53:59.657Z,18.24
2022-08-12T20:56:37.734Z,18.20
2022-08-12T20:59:20.312Z,18.15
2022-08-12T21:01:53.844Z,18.10
2022-08-12T21:04:43.779Z,18.00
2022-08-12T21:07:13.715Z,17.97
2022-08-12T21:09:47.638Z,17.93
2022-08-12T21:12:31.031Z,17.88
2022-08-12T21:15:24.048Z,17.85
2022-08-12T21:18:10.976Z,17.81
2022-08-12T21:20:52.686Z,17.77
2022-08-12T21:23:21.648Z,17.77
2022-08-12T21:25:53.906Z,17.77
2022-08-12T21:28:21.238Z,17.78
2022-08-12T21:31:10.729Z,17.78
2022-08-12T21:33:58.309Z,17.73
2022-08-12T21:36:35.024Z,17.60
2022-08-12T21:39:18.691Z,17.49
2022-08-12T21:41:53.177Z,17.33
2022-08-12T21:44:24.592Z,17.23
2022-08-12T21:47:20.839Z,17.14
2022-08-12T21:50:02.958Z,17.03
2022-08-12T21:52:42.496Z,16.92
2022-08-12T21:55:18.474Z,16.80
2022-08-12T21:57:54.680Z,16.71
2022-08-12T22:00:36.757Z,16.61
2022-08-12T22:04:01.779Z,16.54
2022-08-12T22:06:31.418Z,16.50
2022-08-12T22:09:16.299Z,16.50
2022-08-12T22:11:58.713Z,16.51
2022-08-12T22:14:30.162Z,16.54
2022-08-12T22:17:05.283Z,16.56
2022-08-12T22:19:34.923Z,16.52
2022-08-12T22:22:04.722Z,16.52
2022-08-12T22:24:36.112Z,16.51
2022-08-12T22:27:31.929Z,16.54
2022-08-12T22:30:16.969Z,16.53
2022-08-12T22:32:51.267Z,16.39
2022-08-12T22:35:56.050Z,16.08
2022-08-12T22:38:26.647Z,15.81
2022-08-12T22:41:00.678Z,15.75
2022-08-12T22:43:59.717Z,15.71
2022-08-12T22:46:32.942Z,15.72
2022-08-12T22:48:59.465Z,15.72
2022-08-12T22:51:26.482Z,15.73
2022-08-12T22:53:56.103Z,15.76
2022-08-12T22:56:30.874Z,15.79
2022-08-12T22:59:02.673Z,15.79
2022-08-12T23:01:52.430Z,15.76
2022-08-12T23:04:27.741Z,15.75
2022-08-12T23:06:58.336Z,15.69
2022-08-12T23:09:44.942Z,15.64
2022-08-12T23:12:34.917Z,15.60
2022-08-12T23:15:07.873Z,15.55
2022-08-12T23:17:40.659Z,15.53
2022-08-12T23:20:11.044Z,15.49
2022-08-12T23:22:40.431Z,15.48
2022-08-12T23:25:19.098Z,15.48
2022-08-12T23:28:06.441Z,15.49
2022-08-12T23:31:04.214Z,15.47
2022-08-12T23:34:02.395Z,15.46
2022-08-12T23:36:39.442Z,15.43
2022-08-12T23:40:13.864Z,15.43
2022-08-12T23:42:16.708Z,15.42
2022-08-12T23:44:43.974Z,15.40
2022-08-12T23:47:11.725Z,15.33
2022-08-12T23:49:57.327Z,15.28
2022-08-12T23:52:28.578Z,15.24
2022-08-12T23:55:23.227Z,15.21
2022-08-12T23:58:17.772Z,15.20
